Glen Aubrey, New York
Current Conditions -  °F | °C
As of 12:53 AM on Friday 28 Nov 2014 (Local Time) from KBGM Reporting Station
Overcast Overcast  
Wind Chill: -8°   Ceiling: 6000
Heat Index: -5°   Visibility: 10mi
Dew Point: -6°   Wind: 5mph
Humidity: 92%   Direction: 260°W
Pressure: 29.99"   Gusts: NA
Location:  42.26°N, 76.01°W
Report Text: KBGM 280553Z AUTO 26004KT 10SM SCT039 BKN060 OVC080 M05/M06 A2999 RMK AO2 SLP179 T10501061 11044 21067 58004 $
Loading
Personal Weather Stations






























Interactive Weather Map New forecast layout! Learn more

10-Day Weather Forecast

Advertisements
Track Severe Weather on mobile